KJAX/JAX METAR and TAF weather

Enter ICAO airport designator
Station Type Date Time Source
KJAX METAR 2019/04/20 17:56 UTC NOAA

KJAX 201756Z 27018G26KT 10SM SCT050 SCT100 21/04 A2991 RMK AO2 PK WND 25028/1709 SLP129 60000 T02060044 10206 20128 58006


Station Type Date Time Source
KJAX Decoded METAR 2019/04/20 17:56 UTC NOAA

JACKSONVILLE INTERNATIONAL, FL, United States (KJAX) 30-30N 81-42W 7M
Apr 20, 2019 - 01:56 PM EDT / 2019.04.20 1756 UTC
Wind: from the W (270 degrees) at 21 MPH (18 KT) gusting to 30 MPH (26 KT):0
Visibility: 10 mile(s):0
Sky conditions: partly cloudy
Temperature: 69.1 F (20.6 C)
Dew Point: 39.9 F (4.4 C)
Relative Humidity: 34%
Pressure (altimeter): 29.91 in. Hg (1012 hPa)
Pressure tendency: 0.02 inches (0.6 hPa) lower than three hours ago
ob: KJAX 201756Z 27018G26KT 10SM SCT050 SCT100 21/04 A2991 RMK AO2 PK WND 25028/1709 SLP129 60000 T02060044 10206 20128 58006
cycle: 18

Station Type Date Time Source
KJAX TAF 2019/04/20 18:27 UTC NOAA

TAF KJAX 201723Z 2018/2118 26018G28KT P6SM SCT050
FM202100 26011G19KT P6SM FEW050
FM210000 25005KT P6SM SKC
FM211400 28009KT P6SM SKC

Example: see airport list